createdAt,value
2023-01-07T00:01:38.617Z,95432.97
2023-01-07T00:04:10.202Z,95433.81
2023-01-07T00:06:40.168Z,95433.81
2023-01-07T00:09:12.540Z,95434.00
2023-01-07T00:11:41.587Z,95428.75
2023-01-07T00:14:12.461Z,95428.75
2023-01-07T00:16:40.719Z,95425.66
2023-01-07T00:19:12.255Z,95418.59
2023-01-07T00:21:39.248Z,95417.78
2023-01-07T00:24:07.240Z,95417.78
2023-01-07T00:26:37.074Z,95416.16
2023-01-07T00:29:05.653Z,95417.16
2023-01-07T00:31:36.317Z,95417.34
2023-01-07T00:34:04.372Z,95417.69
2023-01-07T00:36:43.311Z,95421.28
2023-01-07T00:39:19.585Z,95414.78
2023-01-07T00:42:06.838Z,95410.53
2023-01-07T00:44:34.934Z,95412.34
2023-01-07T00:47:02.313Z,95408.09
2023-01-07T00:49:29.774Z,95407.09
2023-01-07T00:51:56.906Z,95408.91
2023-01-07T00:54:25.129Z,95413.16
2023-01-07T00:56:52.194Z,95409.44
2023-01-07T00:59:19.385Z,95407.63
2023-01-07T01:01:46.543Z,95418.78
2023-01-07T01:04:13.916Z,95419.59
2023-01-07T01:06:40.936Z,95419.38
2023-01-07T01:09:08.217Z,95416.16
2023-01-07T01:11:35.283Z,95417.75
2023-01-07T01:14:02.484Z,95412.50
2023-01-07T01:16:29.455Z,95416.16
2023-01-07T01:18:56.647Z,95413.34
2023-01-07T01:21:23.691Z,95416.16
2023-01-07T01:23:50.613Z,95422.38
2023-01-07T01:26:17.937Z,95418.94
2023-01-07T01:28:45.439Z,95413.22
2023-01-07T01:31:15.911Z,95408.97
2023-01-07T01:33:47.400Z,95407.00
2023-01-07T01:36:14.824Z,95402.13
2023-01-07T01:38:42.963Z,95406.72
2023-01-07T01:41:12.590Z,95413.59
2023-01-07T01:43:42.793Z,95408.53
2023-01-07T01:46:20.149Z,95411.97
2023-01-07T01:49:03.835Z,95402.84
2023-01-07T01:51:37.187Z,95409.69
2023-01-07T01:54:09.896Z,95405.28
2023-01-07T01:56:43.966Z,95409.88
2023-01-07T01:59:19.180Z,95407.91
2023-01-07T02:01:47.072Z,95403.47
2023-01-07T02:04:20.124Z,95398.06
2023-01-07T02:07:12.143Z,95398.22
2023-01-07T02:09:44.129Z,95395.97
2023-01-07T02:12:30.857Z,95394.16
2023-01-07T02:15:09.411Z,95390.72
2023-01-07T02:17:54.303Z,95387.09
2023-01-07T02:20:59.744Z,95385.63
2023-01-07T02:23:44.704Z,95381.56
2023-01-07T02:26:35.883Z,95378.13
2023-01-07T02:29:35.210Z,95376.50
2023-01-07T02:32:30.097Z,95374.88
2023-01-07T02:35:30.628Z,95373.88
2023-01-07T02:38:12.912Z,95376.50
2023-01-07T02:41:15.048Z,95374.53
2023-01-07T02:43:51.642Z,95375.31
2023-01-07T02:47:02.247Z,95364.84
2023-01-07T02:49:29.232Z,95366.81
2023-01-07T02:51:56.394Z,95364.03
2023-01-07T02:54:27.780Z,95361.41
2023-01-07T02:57:34.588Z,95354.72
2023-01-07T03:00:34.554Z,95350.28
2023-01-07T03:03:32.595Z,95360.97
2023-01-07T03:06:02.181Z,95360.59
2023-01-07T03:08:46.769Z,95361.41
2023-01-07T03:11:14.459Z,95361.41
2023-01-07T03:14:09.635Z,95351.25
2023-01-07T03:16:44.238Z,95358.53
2023-01-07T03:19:18.603Z,95350.81
2023-01-07T03:21:48.027Z,95351.00
2023-01-07T03:24:16.746Z,95356.44
2023-01-07T03:26:48.723Z,95355.00
2023-01-07T03:29:19.725Z,95360.34
2023-01-07T03:31:56.316Z,95359.38
2023-01-07T03:34:27.380Z,95356.59
2023-01-07T03:37:03.396Z,95356.59
2023-01-07T03:39:33.466Z,95348.72
2023-01-07T03:42:18.975Z,95352.00
2023-01-07T03:44:46.068Z,95341.69
2023-01-07T03:47:14.811Z,95346.75
2023-01-07T03:49:42.031Z,95342.34
2023-01-07T03:52:09.121Z,95344.78
2023-01-07T03:54:36.662Z,95342.16
2023-01-07T03:57:03.979Z,95342.16
2023-01-07T03:59:31.117Z,95333.81
2023-01-07T04:01:58.399Z,95332.00
2023-01-07T04:04:25.940Z,95339.06
2023-01-07T04:06:53.517Z,95333.00
2023-01-07T04:09:22.105Z,95329.56
2023-01-07T04:11:49.909Z,95330.38
2023-01-07T04:14:17.669Z,95324.47
2023-01-07T04:16:44.717Z,95320.22
2023-01-07T04:19:12.270Z,95325.47
2023-01-07T04:21:39.521Z,95312.34
2023-01-07T04:24:07.177Z,95318.41
2023-01-07T04:26:34.915Z,95316.97
2023-01-07T04:29:02.984Z,95312.53
2023-01-07T04:31:30.299Z,95309.94
2023-01-07T04:33:57.956Z,95309.94
2023-01-07T04:36:25.574Z,95313.34
2023-01-07T04:38:52.997Z,95319.38
2023-01-07T04:41:20.068Z,95312.53
2023-01-07T04:43:47.269Z,95311.72
2023-01-07T04:46:14.514Z,95320.41
2023-01-07T04:48:41.939Z,95315.16
2023-01-07T04:51:09.107Z,95309.94
2023-01-07T04:53:35.995Z,95314.97
2023-01-07T04:56:06.236Z,95308.09
2023-01-07T04:58:33.905Z,95307.31
2023-01-07T05:01:03.694Z,95302.66
2023-01-07T05:03:34.478Z,95307.13
2023-01-07T05:06:02.475Z,95304.50
2023-01-07T05:08:29.939Z,95304.50
2023-01-07T05:10:57.765Z,95305.16
2023-01-07T05:13:26.036Z,95305.16
2023-01-07T05:15:53.312Z,95304.16
2023-01-07T05:18:21.078Z,95303.34
2023-01-07T05:20:48.428Z,95301.53
2023-01-07T05:23:15.701Z,95299.72
2023-01-07T05:25:44.521Z,95302.34
2023-01-07T05:28:12.232Z,95294.69
2023-01-07T05:30:40.953Z,95290.22
2023-01-07T05:33:08.948Z,95293.50
2023-01-07T05:35:36.811Z,95292.66
2023-01-07T05:38:04.671Z,95288.25
2023-01-07T05:40:31.933Z,95293.13
2023-01-07T05:42:58.845Z,95289.88
2023-01-07T05:45:27.493Z,95287.25
2023-01-07T05:47:54.750Z,95281.19
2023-01-07T05:50:21.857Z,95276.94
2023-01-07T05:52:51.718Z,95286.63
2023-01-07T05:55:19.184Z,95280.38
2023-01-07T05:57:46.223Z,95286.44
2023-01-07T06:00:14.500Z,95288.25
2023-01-07T06:02:41.714Z,95286.25
2023-01-07T06:05:09.539Z,95282.03
2023-01-07T06:07:37.151Z,95286.25
2023-01-07T06:10:04.750Z,95287.06
2023-01-07T06:12:31.771Z,95279.22
2023-01-07T06:14:58.863Z,95281.66
2023-01-07T06:17:26.213Z,95278.81
2023-01-07T06:19:53.148Z,95277.22
2023-01-07T06:22:20.565Z,95277.22
2023-01-07T06:24:47.533Z,95278.81
2023-01-07T06:27:14.515Z,95274.41
2023-01-07T06:29:41.754Z,95278.66
2023-01-07T06:32:10.065Z,95272.41
2023-01-07T06:34:37.107Z,95266.34
2023-01-07T06:37:04.640Z,95274.03
2023-01-07T06:39:31.579Z,95277.66
2023-01-07T06:41:58.772Z,95275.22
2023-01-07T06:44:25.806Z,95274.41
2023-01-07T06:46:52.752Z,95270.97
2023-01-07T06:49:20.128Z,95277.84
2023-01-07T06:51:47.046Z,95273.44
2023-01-07T06:54:14.081Z,95267.34
2023-01-07T06:56:41.181Z,95269.78
2023-01-07T06:59:08.176Z,95273.25
2023-01-07T07:01:35.766Z,95276.84
2023-01-07T07:04:02.908Z,95276.03
2023-01-07T07:06:30.188Z,95268.34
2023-01-07T07:08:57.147Z,95272.59
2023-01-07T07:11:24.428Z,95274.41
2023-01-07T07:13:51.538Z,95273.59
2023-01-07T07:16:18.814Z,95275.59
2023-01-07T07:18:46.055Z,95270.34
2023-01-07T07:21:12.957Z,95275.59
2023-01-07T07:23:39.939Z,95275.59
2023-01-07T07:26:07.127Z,95282.47
2023-01-07T07:28:34.132Z,95279.84
2023-01-07T07:31:01.332Z,95276.22
2023-01-07T07:33:29.051Z,95277.03
2023-01-07T07:35:56.391Z,95274.59
2023-01-07T07:38:23.525Z,95280.47
2023-01-07T07:40:50.419Z,95272.59
2023-01-07T07:43:17.628Z,95269.97
2023-01-07T07:45:44.826Z,95275.22
2023-01-07T07:48:14.942Z,95265.56
2023-01-07T07:50:42.007Z,95264.53
2023-01-07T07:53:10.536Z,95259.28
2023-01-07T07:55:41.186Z,95253.06
2023-01-07T07:58:08.242Z,95259.59
2023-01-07T08:00:35.641Z,95253.94
2023-01-07T08:03:02.819Z,95255.22
2023-01-07T08:05:30.332Z,95258.13
2023-01-07T08:07:58.193Z,95254.13
2023-01-07T08:10:27.749Z,95249.13
2023-01-07T08:12:54.876Z,95239.06
2023-01-07T08:15:22.206Z,95245.41
2023-01-07T08:17:56.914Z,95248.28
2023-01-07T08:20:23.940Z,95241.84
2023-01-07T08:22:50.936Z,95243.91
2023-01-07T08:25:17.914Z,95238.31
2023-01-07T08:27:46.278Z,95233.50
2023-01-07T08:30:13.517Z,95236.38
2023-01-07T08:32:40.528Z,95230.38
2023-01-07T08:35:08.605Z,95229.81
2023-01-07T08:37:35.495Z,95232.88
2023-01-07T08:40:05.816Z,95230.69
2023-01-07T08:42:32.968Z,95230.94
2023-01-07T08:45:00.253Z,95224.94
2023-01-07T08:47:27.960Z,95226.59
2023-01-07T08:49:55.535Z,95221.41
2023-01-07T08:52:23.795Z,95220.66
2023-01-07T08:54:51.301Z,95220.69
2023-01-07T08:57:20.537Z,95223.59
2023-01-07T08:59:47.964Z,95217.94
2023-01-07T09:02:19.859Z,95224.03
2023-01-07T09:04:47.009Z,95219.22
2023-01-07T09:07:15.944Z,95221.47
2023-01-07T09:09:43.175Z,95217.66
2023-01-07T09:12:11.121Z,95216.25
2023-01-07T09:14:38.741Z,95221.97
2023-01-07T09:17:06.062Z,95222.59
2023-01-07T09:19:33.110Z,95220.00
2023-01-07T09:22:00.289Z,95227.09
2023-01-07T09:24:27.406Z,95221.28
2023-01-07T09:26:54.358Z,95217.06
2023-01-07T09:29:21.334Z,95220.72
2023-01-07T09:31:48.400Z,95215.72
2023-01-07T09:34:15.504Z,95217.56
2023-01-07T09:36:42.727Z,95225.66
2023-01-07T09:39:12.049Z,95219.41
2023-01-07T09:41:58.908Z,95220.41
2023-01-07T09:44:39.448Z,95210.31
2023-01-07T09:47:09.384Z,95210.13
2023-01-07T09:49:36.478Z,95202.66
2023-01-07T09:52:16.395Z,95211.78
2023-01-07T09:54:47.372Z,95206.94
2023-01-07T09:57:17.653Z,95201.88
2023-01-07T09:59:46.065Z,95197.66
2023-01-07T10:02:35.788Z,95195.66
2023-01-07T10:05:27.372Z,95186.94
2023-01-07T10:08:42.113Z,95183.53
2023-01-07T10:11:32.121Z,95173.81
2023-01-07T10:14:31.180Z,95167.31
2023-01-07T10:17:22.087Z,95167.16
2023-01-07T10:20:01.010Z,95166.53
2023-01-07T10:22:52.181Z,95159.03
2023-01-07T10:25:25.160Z,95149.72
2023-01-07T10:27:59.892Z,95151.72
2023-01-07T10:30:31.514Z,95147.09
2023-01-07T10:33:31.730Z,95139.38
2023-01-07T10:36:22.972Z,95137.56
2023-01-07T10:39:02.243Z,95133.13
2023-01-07T10:42:02.975Z,95125.81
2023-01-07T10:44:49.430Z,95121.75
2023-01-07T10:47:25.011Z,95114.06
2023-01-07T10:50:13.303Z,95115.25
2023-01-07T10:53:27.570Z,95107.75
2023-01-07T10:56:23.056Z,95108.34
2023-01-07T10:58:50.678Z,95108.72
2023-01-07T11:01:23.601Z,95104.88
2023-01-07T11:03:53.436Z,95102.84
2023-01-07T11:06:45.400Z,95096.75
2023-01-07T11:09:41.430Z,95100.81
2023-01-07T11:12:46.505Z,95087.00
2023-01-07T11:15:23.603Z,95084.97
2023-01-07T11:17:56.744Z,95087.38
2023-01-07T11:20:46.829Z,95089.22
2023-01-07T11:23:40.904Z,95078.69
2023-01-07T11:26:32.821Z,95070.63
2023-01-07T11:29:23.185Z,95061.53
2023-01-07T11:31:52.987Z,95058.72
2023-01-07T11:34:37.319Z,95064.19
2023-01-07T11:37:05.715Z,95058.34
2023-01-07T11:39:35.817Z,95054.88
2023-01-07T11:42:53.815Z,95049.97
2023-01-07T11:45:35.600Z,95041.03
2023-01-07T11:48:08.960Z,95042.38
2023-01-07T11:50:37.737Z,95043.28
2023-01-07T11:53:16.725Z,95028.44
2023-01-07T11:56:06.324Z,95036.44
2023-01-07T11:58:46.347Z,95007.50
2023-01-07T12:01:22.632Z,95008.66
2023-01-07T12:03:52.871Z,95008.34
2023-01-07T12:06:35.240Z,95006.25
2023-01-07T12:09:14.941Z,94998.25
2023-01-07T12:11:44.375Z,94993.88
2023-01-07T12:14:33.459Z,94995.44
2023-01-07T12:17:18.097Z,94992.47
2023-01-07T12:20:06.301Z,94978.47
2023-01-07T12:22:50.668Z,94983.59
2023-01-07T12:25:59.167Z,94975.78
2023-01-07T12:28:49.083Z,94980.00
2023-01-07T12:31:19.420Z,94971.53
2023-01-07T12:34:04.258Z,94959.34
2023-01-07T12:37:01.636Z,94958.69
2023-01-07T12:39:37.868Z,94956.25
2023-01-07T12:42:25.566Z,94954.97
2023-01-07T12:45:04.445Z,94942.97
2023-01-07T12:47:50.441Z,94940.41
2023-01-07T12:50:33.236Z,94936.00
2023-01-07T12:53:43.857Z,94929.28
2023-01-07T12:56:52.110Z,94925.72
2023-01-07T12:59:46.544Z,94929.41
2023-01-07T13:02:25.287Z,94920.13
2023-01-07T13:05:16.524Z,94914.84
2023-01-07T13:08:14.892Z,94911.94
2023-01-07T13:10:46.708Z,94909.13
2023-01-07T13:13:34.583Z,94910.50
2023-01-07T13:16:01.839Z,94903.00
2023-01-07T13:18:29.733Z,94908.44
2023-01-07T13:21:14.060Z,94904.00
2023-01-07T13:23:56.440Z,94901.78
2023-01-07T13:26:40.939Z,94907.53
2023-01-07T13:29:29.380Z,94902.72
2023-01-07T13:32:29.588Z,94894.84
2023-01-07T13:35:05.435Z,94897.34
2023-01-07T13:37:52.066Z,94899.06
2023-01-07T13:40:24.091Z,94894.97
2023-01-07T13:43:21.917Z,94893.19
2023-01-07T13:46:00.681Z,94894.47
2023-01-07T13:48:28.580Z,94895.03
2023-01-07T13:51:05.723Z,94886.97
2023-01-07T13:53:38.118Z,94882.56
2023-01-07T13:56:17.465Z,94885.44
2023-01-07T13:58:53.281Z,94877.06
2023-01-07T14:01:21.599Z,94880.47
2023-01-07T14:04:06.400Z,94873.63
2023-01-07T14:06:49.239Z,94883.69
2023-01-07T14:09:23.372Z,94894.50
2023-01-07T14:12:08.797Z,94889.03
2023-01-07T14:15:26.535Z,94883.19
2023-01-07T14:18:26.709Z,94888.34
2023-01-07T14:21:26.005Z,94885.09
2023-01-07T14:24:31.889Z,94901.38
2023-01-07T14:27:23.315Z,94899.63
2023-01-07T14:29:54.305Z,94897.75
2023-01-07T14:32:38.272Z,94899.06
2023-01-07T14:35:46.954Z,94892.09
2023-01-07T14:38:32.124Z,94897.22
2023-01-07T14:41:16.203Z,94898.44
2023-01-07T14:43:45.840Z,94893.81
2023-01-07T14:46:24.845Z,94896.63
2023-01-07T14:49:03.761Z,94893.81
2023-01-07T14:51:39.668Z,94891.75
2023-01-07T14:54:30.909Z,94896.59
2023-01-07T14:57:36.167Z,94894.31
2023-01-07T15:00:37.724Z,94891.06
2023-01-07T15:03:20.378Z,94883.53
2023-01-07T15:05:59.541Z,94899.66
2023-01-07T15:08:58.942Z,94898.16
2023-01-07T15:11:45.173Z,94893.22
2023-01-07T15:15:24.450Z,94892.69
2023-01-07T15:17:51.627Z,94893.41
2023-01-07T15:20:18.690Z,94896.38
2023-01-07T15:22:57.744Z,94895.06
2023-01-07T15:26:04.143Z,94879.03
2023-01-07T15:28:47.322Z,94878.56
2023-01-07T15:31:39.689Z,94875.44
2023-01-07T15:34:17.829Z,94881.81
2023-01-07T15:36:52.010Z,94887.19
2023-01-07T15:39:31.060Z,94883.06
2023-01-07T15:41:58.658Z,94883.00
2023-01-07T15:44:40.964Z,94872.28
2023-01-07T15:47:37.932Z,94874.03
2023-01-07T15:50:30.182Z,94871.78
2023-01-07T15:53:04.042Z,94878.81
2023-01-07T15:55:37.844Z,94880.88
2023-01-07T15:58:20.571Z,94877.09
2023-01-07T16:00:57.867Z,94869.22
2023-01-07T16:03:25.439Z,94870.81
2023-01-07T16:05:53.363Z,94876.16
2023-01-07T16:08:30.459Z,94868.09
2023-01-07T16:11:03.809Z,94874.75
2023-01-07T16:13:32.177Z,94869.97
2023-01-07T16:16:03.343Z,94866.78
2023-01-07T16:18:34.936Z,94866.22
2023-01-07T16:21:07.286Z,94866.47
2023-01-07T16:23:37.219Z,94865.91
2023-01-07T16:26:12.607Z,94853.16
2023-01-07T16:28:55.626Z,94848.13
2023-01-07T16:31:26.003Z,94852.75
2023-01-07T16:33:56.481Z,94854.81
2023-01-07T16:36:32.695Z,94853.44
2023-01-07T16:39:07.391Z,94856.50
2023-01-07T16:41:35.205Z,94851.69
2023-01-07T16:44:03.166Z,94847.06
2023-01-07T16:46:34.282Z,94848.31
2023-01-07T16:49:28.648Z,94835.00
2023-01-07T16:52:06.933Z,94832.38
2023-01-07T16:54:37.847Z,94832.59
2023-01-07T16:57:10.606Z,94832.16
2023-01-07T16:59:55.334Z,94829.47
2023-01-07T17:02:31.775Z,94833.25
2023-01-07T17:05:22.431Z,94830.88
2023-01-07T17:07:55.573Z,94835.19
2023-01-07T17:10:29.388Z,94838.69
2023-01-07T17:13:12.320Z,94833.09
2023-01-07T17:15:40.184Z,94836.81
2023-01-07T17:18:16.536Z,94836.97
2023-01-07T17:20:54.350Z,94834.50
2023-01-07T17:23:27.892Z,94842.53
2023-01-07T17:26:11.355Z,94838.16
2023-01-07T17:28:56.456Z,94833.50
2023-01-07T17:31:24.465Z,94830.75
2023-01-07T17:33:55.713Z,94836.38
2023-01-07T17:36:25.820Z,94829.16
2023-01-07T17:38:53.637Z,94828.81
2023-01-07T17:41:41.452Z,94825.81
2023-01-07T17:44:12.542Z,94829.25
2023-01-07T17:46:40.528Z,94815.34
2023-01-07T17:49:09.380Z,94821.41
2023-01-07T17:51:40.241Z,94820.41
2023-01-07T17:54:17.789Z,94822.19
2023-01-07T17:56:44.824Z,94827.25
2023-01-07T17:59:19.122Z,94820.41
2023-01-07T18:01:46.968Z,94824.03
2023-01-07T18:04:14.212Z,94817.72
2023-01-07T18:06:43.767Z,94816.03
2023-01-07T18:09:11.377Z,94819.53
2023-01-07T18:12:00.252Z,94823.28
2023-01-07T18:14:27.287Z,94820.97
2023-01-07T18:16:54.416Z,94825.38
2023-01-07T18:19:21.483Z,94822.75
2023-01-07T18:21:48.558Z,94821.41
2023-01-07T18:24:19.819Z,94818.22
2023-01-07T18:26:47.534Z,94818.66
2023-01-07T18:29:14.652Z,94819.09
2023-01-07T18:31:44.645Z,94816.13
2023-01-07T18:34:14.674Z,94819.19
2023-01-07T18:36:42.167Z,94823.88
2023-01-07T18:39:17.551Z,94816.63
2023-01-07T18:41:48.738Z,94814.47
2023-01-07T18:44:17.770Z,94809.84
2023-01-07T18:46:44.812Z,94805.41
2023-01-07T18:49:12.213Z,94803.44
2023-01-07T18:51:39.326Z,94803.44
2023-01-07T18:54:07.415Z,94816.97
2023-01-07T18:56:36.845Z,94817.41
2023-01-07T18:59:04.103Z,94812.81
2023-01-07T19:01:31.611Z,94804.56
2023-01-07T19:03:58.703Z,94804.41
2023-01-07T19:06:26.355Z,94806.44
2023-01-07T19:08:55.518Z,94806.44
2023-01-07T19:11:22.855Z,94799.59
2023-01-07T19:13:49.885Z,94797.59
2023-01-07T19:16:16.861Z,94793.19
2023-01-07T19:18:43.939Z,94797.22
2023-01-07T19:21:13.096Z,94789.38
2023-01-07T19:23:40.819Z,94800.44
2023-01-07T19:26:10.837Z,94809.94
2023-01-07T19:28:38.133Z,94795.66
2023-01-07T19:31:07.541Z,94794.06
2023-01-07T19:33:35.606Z,94800.09
2023-01-07T19:36:09.749Z,94797.66
2023-01-07T19:38:43.972Z,94795.84
2023-01-07T19:41:15.760Z,94800.28
2023-01-07T19:43:43.535Z,94792.78
2023-01-07T19:46:11.992Z,94797.81
2023-01-07T19:48:39.304Z,94793.41
2023-01-07T19:51:09.061Z,94793.78
2023-01-07T19:53:36.671Z,94784.31
2023-01-07T19:56:11.037Z,94785.94
2023-01-07T19:58:39.132Z,94787.13
2023-01-07T20:01:17.909Z,94781.88
2023-01-07T20:03:45.636Z,94785.50
2023-01-07T20:06:18.944Z,94782.28
2023-01-07T20:08:46.695Z,94787.66
2023-01-07T20:11:14.759Z,94791.47
2023-01-07T20:13:46.213Z,94794.47
2023-01-07T20:16:21.755Z,94792.03
2023-01-07T20:18:54.135Z,94793.66
2023-01-07T20:21:25.577Z,94780.41
2023-01-07T20:23:53.043Z,94776.75
2023-01-07T20:26:24.738Z,94776.59
2023-01-07T20:28:52.159Z,94781.84
2023-01-07T20:31:22.251Z,94773.97
2023-01-07T20:33:50.441Z,94777.41
2023-01-07T20:36:21.296Z,94779.38
2023-01-07T20:38:48.470Z,94771.38
2023-01-07T20:41:21.402Z,94779.22
2023-01-07T20:43:56.952Z,94783.81
2023-01-07T20:46:25.604Z,94777.78
2023-01-07T20:48:53.041Z,94771.09
2023-01-07T20:51:20.499Z,94769.66
2023-01-07T20:53:47.995Z,94765.63
2023-01-07T20:56:22.184Z,94772.88
2023-01-07T20:58:51.566Z,94774.66
2023-01-07T21:01:21.056Z,94772.03
2023-01-07T21:03:48.541Z,94776.28
2023-01-07T21:06:18.311Z,94768.22
2023-01-07T21:08:47.126Z,94770.84
2023-01-07T21:11:23.091Z,94769.66
2023-01-07T21:13:51.938Z,94766.06
2023-01-07T21:16:19.252Z,94761.66
2023-01-07T21:18:46.974Z,94750.34
2023-01-07T21:21:20.248Z,94750.34
2023-01-07T21:23:48.729Z,94757.22
2023-01-07T21:26:16.873Z,94754.59
2023-01-07T21:28:44.622Z,94748.72
2023-01-07T21:31:15.346Z,94736.84
2023-01-07T21:33:42.998Z,94746.50
2023-01-07T21:36:16.245Z,94744.25
2023-01-07T21:38:44.520Z,94745.44
2023-01-07T21:41:15.680Z,94736.34
2023-01-07T21:43:43.723Z,94745.19
2023-01-07T21:46:11.316Z,94736.09
2023-01-07T21:48:41.391Z,94735.47
2023-01-07T21:51:14.879Z,94742.69
2023-01-07T21:53:42.220Z,94740.25
2023-01-07T21:56:15.678Z,94744.06
2023-01-07T21:58:46.614Z,94734.59
2023-01-07T22:01:15.090Z,94738.41
2023-01-07T22:03:49.486Z,94742.00
2023-01-07T22:06:23.867Z,94748.03
2023-01-07T22:08:55.631Z,94736.13
2023-01-07T22:11:23.744Z,94738.59
2023-01-07T22:13:56.551Z,94740.38
2023-01-07T22:16:26.365Z,94741.00
2023-01-07T22:18:53.691Z,94743.63
2023-01-07T22:21:21.114Z,94747.22
2023-01-07T22:23:48.775Z,94745.81
2023-01-07T22:26:17.840Z,94746.16
2023-01-07T22:28:53.891Z,94748.97
2023-01-07T22:31:39.342Z,94738.44
2023-01-07T22:34:08.069Z,94732.38
2023-01-07T22:36:35.084Z,94723.13
2023-01-07T22:39:06.747Z,94720.69
2023-01-07T22:41:35.350Z,94723.66
2023-01-07T22:44:16.913Z,94730.91
2023-01-07T22:46:46.948Z,94722.63
2023-01-07T22:49:14.912Z,94723.97
2023-01-07T22:51:47.147Z,94719.91
2023-01-07T22:54:14.761Z,94711.00
2023-01-07T22:56:43.370Z,94706.94
2023-01-07T22:59:10.469Z,94695.06
2023-01-07T23:01:38.667Z,94692.19
2023-01-07T23:04:06.005Z,94679.63
2023-01-07T23:06:33.445Z,94685.84
2023-01-07T23:09:00.442Z,94684.44
2023-01-07T23:11:46.223Z,94699.31
2023-01-07T23:14:13.618Z,94690.19
2023-01-07T23:16:40.613Z,94691.22
2023-01-07T23:19:07.905Z,94687.78
2023-01-07T23:21:37.487Z,94684.38
2023-01-07T23:24:04.520Z,94680.31
2023-01-07T23:26:31.612Z,94682.09
2023-01-07T23:28:58.625Z,94679.69
2023-01-07T23:31:25.679Z,94683.28
2023-01-07T23:33:52.680Z,94673.81
2023-01-07T23:36:19.895Z,94673.03
2023-01-07T23:38:47.387Z,94680.84
2023-01-07T23:41:14.443Z,94670.41
2023-01-07T23:43:41.435Z,94664.34
2023-01-07T23:46:09.109Z,94662.75
2023-01-07T23:48:38.076Z,94658.69
2023-01-07T23:51:19.508Z,94653.47
2023-01-07T23:53:47.586Z,94651.22
2023-01-07T23:56:19.150Z,94650.41
2023-01-07T23:58:46.401Z,94647.63
